createdAt,value
2023-05-02T00:05:10.490Z,14.05
2023-05-02T00:15:15.508Z,13.89
2023-05-02T00:25:19.246Z,13.87
2023-05-02T00:35:24.158Z,13.86
2023-05-02T00:45:28.010Z,13.84
2023-05-02T00:55:34.718Z,13.96
2023-05-02T01:05:51.023Z,13.83
2023-05-02T01:15:57.770Z,13.55
2023-05-02T01:26:17.925Z,13.49
2023-05-02T01:36:27.027Z,13.30
2023-05-02T01:46:35.612Z,13.24
2023-05-02T01:56:41.713Z,13.18
2023-05-02T02:06:49.871Z,13.12
2023-05-02T02:16:57.677Z,13.11
2023-05-02T02:27:01.233Z,13.11
2023-05-02T02:37:12.624Z,12.83
2023-05-02T02:47:25.218Z,12.71
2023-05-02T02:57:40.398Z,12.65
2023-05-02T03:07:43.983Z,12.48
2023-05-02T03:17:48.886Z,12.37
2023-05-02T03:27:52.566Z,12.24
2023-05-02T03:37:57.518Z,12.42
2023-05-02T03:48:01.204Z,12.50
2023-05-02T03:58:06.229Z,12.61
2023-05-02T04:08:09.955Z,12.66
2023-05-02T04:18:15.035Z,12.63
2023-05-02T04:28:18.641Z,12.62
2023-05-02T04:38:23.783Z,12.48
2023-05-02T04:48:27.560Z,12.42
2023-05-02T04:58:35.103Z,12.95
2023-05-02T05:08:38.932Z,13.01
2023-05-02T05:18:44.099Z,13.07
2023-05-02T05:28:48.014Z,12.94
2023-05-02T05:38:53.653Z,13.16
2023-05-02T05:48:57.396Z,13.20
2023-05-02T05:59:02.460Z,13.42
2023-05-02T06:09:06.140Z,13.28
2023-05-02T06:19:11.532Z,13.38
2023-05-02T06:29:15.153Z,13.44
2023-05-02T06:39:20.131Z,13.73
2023-05-02T06:49:23.838Z,14.25
2023-05-02T06:59:28.939Z,14.58
2023-05-02T07:09:32.569Z,14.65
2023-05-02T07:19:37.501Z,15.01
2023-05-02T07:29:42.442Z,15.06
2023-05-02T07:39:47.614Z,14.91
2023-05-02T07:49:52.575Z,15.00
2023-05-02T07:59:58.135Z,14.63
2023-05-02T08:10:02.329Z,15.09
2023-05-02T08:20:09.581Z,15.06
2023-05-02T08:30:14.608Z,15.18
2023-05-02T08:40:30.423Z,15.18
2023-05-02T08:50:45.223Z,14.96
2023-05-02T09:00:52.058Z,15.15
2023-05-02T09:10:56.058Z,15.18
2023-05-02T09:21:02.668Z,15.22
2023-05-02T09:31:09.554Z,15.80
2023-05-02T09:41:15.080Z,16.36
2023-05-02T09:51:20.119Z,16.51
2023-05-02T10:01:25.185Z,17.38
2023-05-02T10:11:28.910Z,17.60
2023-05-02T10:21:37.130Z,17.89
2023-05-02T10:31:44.281Z,17.32
2023-05-02T10:41:50.019Z,16.71
2023-05-02T10:51:54.105Z,16.66
2023-05-02T11:01:59.579Z,18.06
2023-05-02T11:12:05.721Z,18.46
2023-05-02T11:22:34.255Z,17.98
2023-05-02T11:33:19.796Z,18.65
2023-05-02T11:43:31.930Z,18.06
2023-05-02T11:53:42.601Z,18.17
2023-05-02T12:03:49.411Z,18.43
2023-05-02T12:13:53.432Z,18.52
2023-05-02T12:23:58.872Z,18.58
2023-05-02T12:34:03.342Z,18.48
2023-05-02T12:44:08.386Z,18.99
2023-05-02T12:54:21.744Z,18.99
2023-05-02T13:04:36.632Z,18.49
2023-05-02T13:14:40.452Z,17.35
2023-05-02T13:24:46.959Z,17.51
2023-05-02T13:34:50.636Z,17.93
2023-05-02T13:44:55.649Z,17.95
2023-05-02T13:54:59.334Z,18.87
2023-05-02T14:05:04.461Z,18.43
2023-05-02T14:15:10.216Z,17.69
2023-05-02T14:25:15.620Z,17.61
2023-05-02T14:35:19.323Z,17.26
2023-05-02T14:45:24.580Z,17.60
2023-05-02T14:55:28.385Z,18.10
2023-05-02T15:05:33.893Z,18.50
2023-05-02T15:15:37.736Z,18.42
2023-05-02T15:25:44.514Z,18.72
2023-05-02T15:35:56.430Z,18.73
2023-05-02T15:46:01.834Z,18.74
2023-05-02T15:56:08.539Z,18.44
2023-05-02T16:06:15.859Z,18.20
2023-05-02T16:16:19.719Z,18.44
2023-05-02T16:26:24.769Z,18.94
2023-05-02T16:36:28.998Z,18.62
2023-05-02T16:46:34.214Z,18.92
2023-05-02T16:56:38.048Z,18.88
2023-05-02T17:06:44.049Z,18.58
2023-05-02T17:16:47.903Z,18.74
2023-05-02T17:26:53.868Z,18.81
2023-05-02T17:36:57.536Z,18.45
2023-05-02T17:47:02.969Z,18.10
2023-05-02T17:57:06.656Z,16.87
2023-05-02T18:07:11.835Z,15.76
2023-05-02T18:17:15.713Z,14.40
2023-05-02T18:27:21.228Z,13.91
2023-05-02T18:37:31.219Z,13.58
2023-05-02T18:47:36.833Z,13.09
2023-05-02T18:57:40.617Z,12.77
2023-05-02T19:07:45.888Z,12.50
2023-05-02T19:17:51.093Z,12.14
2023-05-02T19:27:56.296Z,12.03
2023-05-02T19:37:59.926Z,11.77
2023-05-02T19:48:05.735Z,11.78
2023-05-02T19:58:09.565Z,11.45
2023-05-02T20:08:14.661Z,11.37
2023-05-02T20:18:18.817Z,11.00
2023-05-02T20:28:24.900Z,10.72
2023-05-02T20:38:29.914Z,10.34
2023-05-02T20:48:35.019Z,10.38
2023-05-02T20:58:39.210Z,10.25
2023-05-02T21:08:44.981Z,10.04
2023-05-02T21:18:49.377Z,9.79
2023-05-02T21:28:55.492Z,10.08
2023-05-02T21:39:02.765Z,9.57
2023-05-02T21:49:10.472Z,9.31
2023-05-02T21:59:14.278Z,9.18
2023-05-02T22:09:19.306Z,9.07
2023-05-02T22:19:23.026Z,8.91
2023-05-02T22:29:28.029Z,8.69
2023-05-02T22:39:31.723Z,8.40
2023-05-02T22:49:36.723Z,8.39
2023-05-02T22:59:40.464Z,8.25
2023-05-02T23:09:45.565Z,8.04
2023-05-02T23:19:50.089Z,7.79
2023-05-02T23:29:55.193Z,7.98
2023-05-02T23:40:00.395Z,7.81
2023-05-02T23:50:06.208Z,7.69
